createdAt,value
2022-10-18T00:00:32.978Z,7.68
2022-10-18T00:03:00.270Z,7.13
2022-10-18T00:05:27.414Z,6.38
2022-10-18T00:07:54.826Z,7.20
2022-10-18T00:10:25.036Z,7.55
2022-10-18T00:12:52.387Z,7.88
2022-10-18T00:15:22.219Z,7.00
2022-10-18T00:17:53.140Z,7.22
2022-10-18T00:20:20.434Z,6.75
2022-10-18T00:22:47.496Z,7.32
2022-10-18T00:25:18.369Z,6.68
2022-10-18T00:27:48.129Z,8.20
2022-10-18T00:30:15.302Z,7.05
2022-10-18T00:32:43.507Z,6.90
2022-10-18T00:35:10.586Z,6.47
2022-10-18T00:37:37.615Z,7.55
2022-10-18T00:40:06.391Z,7.00
2022-10-18T00:42:37.290Z,7.00
2022-10-18T00:45:18.840Z,7.10
2022-10-18T00:47:50.470Z,7.77
2022-10-18T00:50:19.886Z,7.28
2022-10-18T00:52:58.543Z,7.50
2022-10-18T00:55:27.170Z,6.82
2022-10-18T00:57:55.996Z,6.55
2022-10-18T01:00:26.209Z,7.70
2022-10-18T01:02:58.443Z,7.65
2022-10-18T01:05:26.772Z,7.65
2022-10-18T01:08:02.747Z,7.97
2022-10-18T01:10:45.563Z,8.10
2022-10-18T01:13:43.549Z,7.15
2022-10-18T01:16:35.779Z,7.13
2022-10-18T01:19:40.880Z,6.65
2022-10-18T01:22:28.518Z,7.00
2022-10-18T01:25:11.821Z,8.55
2022-10-18T01:28:05.322Z,9.10
2022-10-18T01:30:38.251Z,8.10
2022-10-18T01:33:36.658Z,8.00
2022-10-18T01:36:25.697Z,7.65
2022-10-18T01:38:56.445Z,8.77
2022-10-18T01:41:25.427Z,8.25
2022-10-18T01:43:58.729Z,7.75
2022-10-18T01:46:27.354Z,8.23
2022-10-18T01:48:55.594Z,7.25
2022-10-18T01:51:27.957Z,7.90
2022-10-18T01:56:33.869Z,6.40
2022-10-18T01:59:22.363Z,7.80
2022-10-18T02:01:59.501Z,7.45
2022-10-18T02:04:51.701Z,6.80
2022-10-18T02:07:36.861Z,7.55
2022-10-18T02:10:21.604Z,7.68
2022-10-18T02:12:50.203Z,7.80
2022-10-18T02:15:25.044Z,7.30
2022-10-18T02:17:56.043Z,8.15
2022-10-18T02:20:29.193Z,7.30
2022-10-18T02:22:59.722Z,8.45
2022-10-18T02:25:29.969Z,7.90
2022-10-18T02:27:57.371Z,7.88
2022-10-18T02:30:34.551Z,7.90
2022-10-18T02:33:11.387Z,8.75
2022-10-18T02:35:44.618Z,7.93
2022-10-18T02:38:16.644Z,8.90
2022-10-18T02:40:43.886Z,8.88
2022-10-18T02:43:10.883Z,8.52
2022-10-18T02:45:38.465Z,7.78
2022-10-18T02:48:06.341Z,8.05
2022-10-18T02:50:33.626Z,7.95
2022-10-18T02:53:00.819Z,8.00
2022-10-18T02:55:32.045Z,8.02
2022-10-18T02:57:59.184Z,7.38
2022-10-18T03:00:26.346Z,7.90
2022-10-18T03:02:53.996Z,8.05
2022-10-18T03:05:22.107Z,8.77
2022-10-18T03:07:49.266Z,8.25
2022-10-18T03:10:16.371Z,8.45
2022-10-18T03:12:43.538Z,8.45
2022-10-18T03:15:10.998Z,7.25
2022-10-18T03:17:38.051Z,7.97
2022-10-18T03:20:05.512Z,7.70
2022-10-18T03:22:33.016Z,6.97
2022-10-18T03:25:00.211Z,7.32
2022-10-18T03:27:27.294Z,7.68
2022-10-18T03:29:54.519Z,7.15
2022-10-18T03:32:21.664Z,7.65
2022-10-18T03:34:48.928Z,7.25
2022-10-18T03:37:19.074Z,6.63
2022-10-18T03:39:46.121Z,7.00
2022-10-18T03:42:13.224Z,7.07
2022-10-18T03:44:40.344Z,7.68
2022-10-18T03:47:07.610Z,7.90
2022-10-18T03:49:34.678Z,6.50
2022-10-18T03:52:10.543Z,8.40
2022-10-18T03:54:37.645Z,7.15
2022-10-18T03:57:07.665Z,7.60
2022-10-18T03:59:34.735Z,7.68
2022-10-18T04:02:02.028Z,7.07
2022-10-18T04:04:29.213Z,6.68
2022-10-18T04:06:56.364Z,7.13
2022-10-18T04:09:23.446Z,6.68
2022-10-18T04:11:51.483Z,6.57
2022-10-18T04:14:23.777Z,7.05
2022-10-18T04:16:50.931Z,6.45
2022-10-18T04:19:18.821Z,6.35
2022-10-18T04:21:45.859Z,6.38
2022-10-18T04:24:13.096Z,6.30
2022-10-18T04:26:40.256Z,5.80
2022-10-18T04:29:07.577Z,6.70
2022-10-18T04:31:34.814Z,7.38
2022-10-18T04:34:02.946Z,6.68
2022-10-18T04:36:30.881Z,7.22
2022-10-18T04:38:57.962Z,5.78
2022-10-18T04:41:25.100Z,6.32
2022-10-18T04:43:52.116Z,6.60
2022-10-18T04:46:19.254Z,6.43
2022-10-18T04:48:46.255Z,6.22
2022-10-18T04:51:13.365Z,6.07
2022-10-18T04:53:40.521Z,6.72
2022-10-18T04:56:08.067Z,5.60
2022-10-18T04:58:35.455Z,6.38
2022-10-18T05:01:06.654Z,6.45
2022-10-18T05:03:34.073Z,6.38
2022-10-18T05:06:03.687Z,7.15
2022-10-18T05:08:35.368Z,7.07
2022-10-18T05:11:05.694Z,6.50
2022-10-18T05:13:32.934Z,6.57
2022-10-18T05:16:00.923Z,5.75
2022-10-18T05:18:28.191Z,5.80
2022-10-18T05:20:55.336Z,5.25
2022-10-18T05:23:25.567Z,6.38
2022-10-18T05:25:52.667Z,6.35
2022-10-18T05:28:40.105Z,5.93
2022-10-18T05:31:08.898Z,5.95
2022-10-18T05:33:36.134Z,7.22
2022-10-18T05:36:03.308Z,6.68
2022-10-18T05:38:31.267Z,7.85
2022-10-18T05:40:59.840Z,7.32
2022-10-18T05:43:30.010Z,7.60
2022-10-18T05:45:59.452Z,8.40
2022-10-18T05:48:26.832Z,7.57
2022-10-18T05:50:53.854Z,7.90
2022-10-18T05:53:37.483Z,6.35
2022-10-18T05:56:06.211Z,8.27
2022-10-18T05:58:36.565Z,7.20
2022-10-18T06:01:05.292Z,7.57
2022-10-18T06:03:35.528Z,6.55
2022-10-18T06:06:10.954Z,8.32
2022-10-18T06:08:39.228Z,5.75
2022-10-18T06:11:11.399Z,5.20
2022-10-18T06:13:44.290Z,6.25
2022-10-18T06:16:13.697Z,5.60
2022-10-18T06:18:41.054Z,5.25
2022-10-18T06:21:08.200Z,4.38
2022-10-18T06:23:35.809Z,4.38
2022-10-18T06:26:05.969Z,3.10
2022-10-18T06:28:35.807Z,3.38
2022-10-18T06:31:03.743Z,4.30
2022-10-18T06:33:31.838Z,3.72
2022-10-18T06:36:05.285Z,3.50
2022-10-18T06:38:36.135Z,3.30
2022-10-18T06:41:04.708Z,3.72
2022-10-18T06:43:31.697Z,3.80
2022-10-18T06:46:00.823Z,3.83
2022-10-18T06:48:28.072Z,4.28
2022-10-18T06:50:59.898Z,3.72
2022-10-18T06:53:29.504Z,3.40
2022-10-18T06:56:05.799Z,3.38
2022-10-18T06:58:33.827Z,3.85
2022-10-18T07:01:09.842Z,4.28
2022-10-18T07:03:37.141Z,4.20
2022-10-18T07:06:06.022Z,4.50
2022-10-18T07:08:39.373Z,4.07
2022-10-18T07:11:08.388Z,4.22
2022-10-18T07:13:35.699Z,3.65
2022-10-18T07:16:07.423Z,3.35
2022-10-18T07:18:36.065Z,3.28
2022-10-18T07:21:08.798Z,4.20
2022-10-18T07:23:37.591Z,4.13
2022-10-18T07:26:21.723Z,3.72
2022-10-18T07:28:51.905Z,4.85
2022-10-18T07:31:19.103Z,4.45
2022-10-18T07:33:46.287Z,4.35
2022-10-18T07:36:13.798Z,4.63
2022-10-18T07:38:41.664Z,5.10
2022-10-18T07:41:10.820Z,3.97
2022-10-18T07:43:41.196Z,4.03
2022-10-18T07:46:08.220Z,4.32
2022-10-18T07:48:35.332Z,3.80
2022-10-18T07:51:02.848Z,3.70
2022-10-18T07:53:30.160Z,3.30
2022-10-18T07:56:08.748Z,4.07
2022-10-18T07:58:37.050Z,3.33
2022-10-18T08:01:06.155Z,3.58
2022-10-18T08:03:33.821Z,3.50
2022-10-18T08:06:00.850Z,3.85
2022-10-18T08:08:28.511Z,3.15
2022-10-18T08:10:55.914Z,2.85
2022-10-18T08:13:24.060Z,2.92
2022-10-18T08:15:51.107Z,2.20
2022-10-18T08:18:18.155Z,3.42
2022-10-18T08:20:46.844Z,2.78
2022-10-18T08:23:13.826Z,2.95
2022-10-18T08:25:41.016Z,2.58
2022-10-18T08:28:17.542Z,2.55
2022-10-18T08:30:44.512Z,1.83
2022-10-18T08:33:11.957Z,2.70
2022-10-18T08:35:39.103Z,2.33
2022-10-18T08:38:06.248Z,2.72
2022-10-18T08:40:35.034Z,2.28
2022-10-18T08:43:40.513Z,3.08
2022-10-18T08:46:12.397Z,2.30
2022-10-18T08:48:52.595Z,2.25
2022-10-18T08:51:36.065Z,1.95
2022-10-18T08:54:22.808Z,1.60
2022-10-18T08:56:59.796Z,1.10
2022-10-18T08:59:38.292Z,1.63
2022-10-18T09:02:25.423Z,1.33
2022-10-18T09:05:00.475Z,1.15
2022-10-18T09:07:59.161Z,1.10
2022-10-18T09:13:35.695Z,1.05
2022-10-18T09:16:05.860Z,1.10
2022-10-18T09:19:23.609Z,1.10
2022-10-18T09:22:00.607Z,0.90
2022-10-18T09:24:46.031Z,0.70
2022-10-18T09:27:19.126Z,0.80
2022-10-18T09:30:16.342Z,0.70
2022-10-18T09:32:59.834Z,0.60
2022-10-18T09:35:39.802Z,0.50
2022-10-18T09:38:13.403Z,0.93
2022-10-18T09:40:58.567Z,0.60
2022-10-18T09:43:39.745Z,0.90
2022-10-18T09:46:07.362Z,0.60
2022-10-18T09:48:49.641Z,0.50
2022-10-18T09:51:23.576Z,0.55
2022-10-18T09:53:53.562Z,0.73
2022-10-18T09:56:42.160Z,0.50
2022-10-18T09:59:28.743Z,0.52
2022-10-18T10:01:55.821Z,0.63
2022-10-18T10:04:23.040Z,0.50
2022-10-18T10:06:55.087Z,0.40
2022-10-18T10:09:40.731Z,0.40
2022-10-18T10:12:27.297Z,0.20
2022-10-18T10:14:54.303Z,0.30
2022-10-18T10:17:26.327Z,0.40
2022-10-18T10:19:58.881Z,0.30
2022-10-18T10:22:39.346Z,0.55
2022-10-18T10:25:07.724Z,0.57
2022-10-18T10:27:46.127Z,0.70
2022-10-18T10:30:34.886Z,0.60
2022-10-18T10:33:05.565Z,0.47
2022-10-18T10:38:29.133Z,0.40
2022-10-18T10:40:57.202Z,0.38
2022-10-18T10:43:40.331Z,0.28
2022-10-18T10:46:19.369Z,0.60
2022-10-18T10:49:27.534Z,0.40
2022-10-18T10:51:50.599Z,0.40
2022-10-18T10:54:26.170Z,0.30
2022-10-18T10:57:19.902Z,0.63
2022-10-18T10:59:55.591Z,0.30
2022-10-18T11:02:33.936Z,0.30
2022-10-18T11:05:29.496Z,0.30
2022-10-18T11:08:04.581Z,0.30
2022-10-18T11:10:35.056Z,0.40
2022-10-18T11:13:14.376Z,0.47
2022-10-18T11:15:47.486Z,0.50
2022-10-18T11:18:17.489Z,0.68
2022-10-18T11:21:08.084Z,0.43
2022-10-18T11:23:37.394Z,0.60
2022-10-18T11:26:11.846Z,0.30
2022-10-18T11:29:15.305Z,0.22
2022-10-18T11:32:00.818Z,0.50
2022-10-18T11:34:45.950Z,0.20
2022-10-18T11:37:39.689Z,0.20
2022-10-18T11:40:34.841Z,0.55
2022-10-18T11:43:30.255Z,0.40
2022-10-18T11:46:25.496Z,0.50
2022-10-18T11:49:11.644Z,0.32
2022-10-18T11:52:03.175Z,0.47
2022-10-18T11:55:11.830Z,0.38
2022-10-18T11:57:46.009Z,0.43
2022-10-18T12:00:28.983Z,0.30
2022-10-18T12:03:23.763Z,0.40
2022-10-18T12:05:53.290Z,0.40
2022-10-18T12:08:36.278Z,0.50
2022-10-18T12:11:36.629Z,0.50
2022-10-18T12:14:17.637Z,0.70
2022-10-18T12:16:51.546Z,0.50
2022-10-18T12:19:28.573Z,0.68
2022-10-18T12:22:19.899Z,0.35
2022-10-18T12:24:47.036Z,0.43
2022-10-18T12:27:16.157Z,0.40
2022-10-18T12:29:50.293Z,0.50
2022-10-18T12:32:33.478Z,0.55
2022-10-18T12:35:14.773Z,0.38
2022-10-18T12:38:13.614Z,0.45
2022-10-18T12:40:46.972Z,0.45
2022-10-18T12:43:22.787Z,0.63
2022-10-18T12:45:57.106Z,0.65
2022-10-18T12:48:42.706Z,0.30
2022-10-18T12:51:17.888Z,0.43
2022-10-18T12:53:48.568Z,0.40
2022-10-18T12:56:28.061Z,0.30
2022-10-18T12:59:14.050Z,0.20
2022-10-18T13:02:07.730Z,0.30
2022-10-18T13:04:35.444Z,0.22
2022-10-18T13:07:05.646Z,0.20
2022-10-18T13:10:18.129Z,0.20
2022-10-18T13:13:39.189Z,0.30
2022-10-18T13:16:28.932Z,0.30
2022-10-18T13:19:19.842Z,0.20
2022-10-18T13:21:46.803Z,0.20
2022-10-18T13:24:26.286Z,0.30
2022-10-18T13:27:35.066Z,0.30
2022-10-18T13:30:38.578Z,0.20
2022-10-18T13:33:30.630Z,0.15
2022-10-18T13:36:04.981Z,0.30
2022-10-18T13:38:40.056Z,0.30
2022-10-18T13:41:11.932Z,0.10
2022-10-18T13:44:03.401Z,0.30
2022-10-18T13:46:33.710Z,0.10
2022-10-18T13:49:22.689Z,0.52
2022-10-18T13:51:58.537Z,0.45
2022-10-18T13:55:00.891Z,0.10
2022-10-18T13:57:57.678Z,0.30
2022-10-18T14:00:33.578Z,0.10
2022-10-18T14:03:55.480Z,0.17
2022-10-18T14:06:22.553Z,0.20
2022-10-18T14:09:25.963Z,0.28
2022-10-18T14:12:20.380Z,0.20
2022-10-18T14:14:59.649Z,0.35
2022-10-18T14:17:47.824Z,0.15
2022-10-18T14:20:30.266Z,0.20
2022-10-18T14:25:38.296Z,0.30
2022-10-18T14:28:27.421Z,0.50
2022-10-18T14:31:07.349Z,0.20
2022-10-18T14:33:38.014Z,0.20
2022-10-18T14:36:20.439Z,0.30
2022-10-18T14:38:59.354Z,0.28
2022-10-18T14:41:30.671Z,0.47
2022-10-18T14:44:16.508Z,0.10
2022-10-18T14:46:58.912Z,0.13
2022-10-18T14:49:29.394Z,0.10
2022-10-18T14:51:59.183Z,0.15
2022-10-18T14:54:32.528Z,0.10
2022-10-18T14:57:03.641Z,0.17
2022-10-18T14:59:41.009Z,0.20
2022-10-18T15:02:25.056Z,0.32
2022-10-18T15:05:19.429Z,0.20
2022-10-18T15:07:47.766Z,0.20
2022-10-18T15:10:32.313Z,0.30
2022-10-18T15:13:11.171Z,0.30
2022-10-18T15:15:40.284Z,0.13
2022-10-18T15:18:08.386Z,0.30
2022-10-18T15:21:07.530Z,0.20
2022-10-18T15:23:35.157Z,0.30
2022-10-18T15:26:11.347Z,0.35
2022-10-18T15:28:52.755Z,0.30
2022-10-18T15:31:37.466Z,0.15
2022-10-18T15:34:40.242Z,0.13
2022-10-18T15:37:44.660Z,0.20
2022-10-18T15:40:23.311Z,0.20
2022-10-18T15:43:23.118Z,0.20
2022-10-18T15:46:01.801Z,0.13
2022-10-18T15:48:42.994Z,0.10
2022-10-18T15:51:25.447Z,0.10
2022-10-18T15:53:58.119Z,0.05
2022-10-18T15:56:36.884Z,0.17
2022-10-18T15:59:25.883Z,0.20
2022-10-18T16:01:53.329Z,0.10
2022-10-18T16:04:31.846Z,0.10
2022-10-18T16:07:00.109Z,0.17
2022-10-18T16:09:28.851Z,0.10
2022-10-18T16:12:03.771Z,0.20
2022-10-18T16:14:41.597Z,0.20
2022-10-18T16:17:17.223Z,0.20
2022-10-18T16:19:44.907Z,0.30
2022-10-18T16:24:40.770Z,0.22
2022-10-18T16:27:25.070Z,0.20
2022-10-18T16:29:52.442Z,0.40
2022-10-18T16:32:19.580Z,0.30
2022-10-18T16:34:46.805Z,0.73
2022-10-18T16:37:14.061Z,0.60
2022-10-18T16:39:44.986Z,0.60
2022-10-18T16:42:13.487Z,0.15
2022-10-18T16:44:40.717Z,0.20
2022-10-18T16:47:09.982Z,0.30
2022-10-18T16:49:37.170Z,0.10
2022-10-18T16:52:20.463Z,0.30
2022-10-18T16:54:47.663Z,0.22
2022-10-18T16:57:14.740Z,2.45
2022-10-18T16:59:41.957Z,2.15
2022-10-18T17:02:09.814Z,4.15
2022-10-18T17:04:36.918Z,2.38
2022-10-18T17:07:05.048Z,1.30
2022-10-18T17:09:34.936Z,1.08
2022-10-18T17:12:02.197Z,1.05
2022-10-18T17:14:48.099Z,0.70
2022-10-18T17:17:18.177Z,0.38
2022-10-18T17:19:45.371Z,0.35
2022-10-18T17:22:12.470Z,0.40
2022-10-18T17:28:34.757Z,0.43
2022-10-18T17:31:01.799Z,0.30
2022-10-18T17:33:29.136Z,0.20
2022-10-18T17:35:56.178Z,0.20
2022-10-18T17:38:23.297Z,0.20
2022-10-18T17:41:05.480Z,0.28
2022-10-18T17:46:09.318Z,0.30
2022-10-18T17:48:36.458Z,0.40
2022-10-18T17:51:11.533Z,0.40
2022-10-18T17:53:39.712Z,0.70
2022-10-18T17:56:08.019Z,0.93
2022-10-18T17:58:36.772Z,0.55
2022-10-18T18:01:12.060Z,0.40
2022-10-18T18:03:39.676Z,0.60
2022-10-18T18:06:18.749Z,0.50
2022-10-18T18:08:47.544Z,0.32
2022-10-18T18:11:22.537Z,0.40
2022-10-18T18:14:04.352Z,0.55
2022-10-18T18:16:34.976Z,0.35
2022-10-18T18:19:04.073Z,0.30
2022-10-18T18:21:34.112Z,0.25
2022-10-18T18:24:04.061Z,0.43
2022-10-18T18:26:32.848Z,0.60
2022-10-18T18:29:00.093Z,0.70
2022-10-18T18:31:30.779Z,1.20
2022-10-18T18:34:01.814Z,1.23
2022-10-18T18:36:29.225Z,0.70
2022-10-18T18:38:57.801Z,0.50
2022-10-18T18:41:29.500Z,1.05
2022-10-18T18:43:58.968Z,0.40
2022-10-18T18:46:28.963Z,0.45
2022-10-18T18:48:59.420Z,0.50
2022-10-18T18:51:41.481Z,0.32
2022-10-18T18:54:13.660Z,0.40
2022-10-18T18:56:42.281Z,0.52
2022-10-18T18:59:11.681Z,0.35
2022-10-18T19:01:38.860Z,0.40
2022-10-18T19:04:07.817Z,0.30
2022-10-18T19:06:40.997Z,0.25
2022-10-18T19:09:19.725Z,0.40
2022-10-18T19:11:49.165Z,0.25
2022-10-18T19:14:16.878Z,0.40
2022-10-18T19:16:53.293Z,0.30
2022-10-18T19:19:26.350Z,0.52
2022-10-18T19:22:00.749Z,0.40
2022-10-18T19:24:30.462Z,0.40
2022-10-18T19:26:59.963Z,0.50
2022-10-18T19:29:34.999Z,0.40
2022-10-18T19:32:05.446Z,0.60
2022-10-18T19:34:34.548Z,0.30
2022-10-18T19:37:01.631Z,0.38
2022-10-18T19:39:33.670Z,0.40
2022-10-18T19:42:03.349Z,0.38
2022-10-18T19:44:32.798Z,0.38
2022-10-18T19:47:00.402Z,0.20
2022-10-18T19:49:28.858Z,0.30
2022-10-18T19:51:56.853Z,0.22
2022-10-18T19:54:24.692Z,0.20
2022-10-18T19:56:51.995Z,0.20
2022-10-18T19:59:19.827Z,0.30
2022-10-18T20:01:47.263Z,0.22
2022-10-18T20:04:17.752Z,0.30
2022-10-18T20:06:45.188Z,0.25
2022-10-18T20:09:16.264Z,0.20
2022-10-18T20:11:46.953Z,0.40
2022-10-18T20:14:24.511Z,0.40
2022-10-18T20:16:51.668Z,0.30
2022-10-18T20:19:18.729Z,0.40
2022-10-18T20:21:45.824Z,0.40
2022-10-18T20:24:12.950Z,0.43
2022-10-18T20:26:40.157Z,0.20
2022-10-18T20:29:07.994Z,0.40
2022-10-18T20:31:38.498Z,0.30
2022-10-18T20:34:09.147Z,0.30
2022-10-18T20:36:36.346Z,0.30
2022-10-18T20:39:05.097Z,0.25
2022-10-18T20:41:41.794Z,0.30
2022-10-18T20:44:19.376Z,0.30
2022-10-18T20:46:53.863Z,0.28
2022-10-18T20:49:53.599Z,0.30
2022-10-18T20:52:31.125Z,0.55
2022-10-18T20:54:58.171Z,0.32
2022-10-18T20:57:25.033Z,0.30
2022-10-18T20:59:52.057Z,0.22
2022-10-18T21:02:19.156Z,0.30
2022-10-18T21:04:46.262Z,0.30
2022-10-18T21:07:13.163Z,0.30
2022-10-18T21:09:40.050Z,0.38
2022-10-18T21:12:07.406Z,0.20
2022-10-18T21:14:35.551Z,0.60
2022-10-18T21:17:02.578Z,0.82
2022-10-18T21:19:29.751Z,0.30
2022-10-18T21:21:57.714Z,0.40
2022-10-18T21:24:25.889Z,0.20
2022-10-18T21:26:53.397Z,0.38
2022-10-18T21:29:22.587Z,0.40
2022-10-18T21:31:55.425Z,0.50
2022-10-18T21:36:53.369Z,0.47
2022-10-18T21:41:50.018Z,0.30
2022-10-18T21:44:18.531Z,0.40
2022-10-18T21:46:46.761Z,0.20
2022-10-18T21:49:15.050Z,0.50
2022-10-18T21:51:42.270Z,0.90
2022-10-18T21:54:13.559Z,0.32
2022-10-18T21:56:40.624Z,1.00
2022-10-18T21:59:07.901Z,0.77
2022-10-18T22:01:37.536Z,0.30
2022-10-18T22:04:07.685Z,0.40
2022-10-18T22:06:36.347Z,0.20
2022-10-18T22:09:06.370Z,0.30
2022-10-18T22:11:43.223Z,0.20
2022-10-18T22:14:10.872Z,0.10
2022-10-18T22:16:38.019Z,0.25
2022-10-18T22:19:06.508Z,0.28
2022-10-18T22:21:33.689Z,0.40
2022-10-18T22:24:06.234Z,0.25
2022-10-18T22:26:39.167Z,0.30
2022-10-18T22:29:10.205Z,0.40
2022-10-18T22:31:39.673Z,0.30
2022-10-18T22:34:10.634Z,0.47
2022-10-18T22:36:37.578Z,0.60
2022-10-18T22:39:06.014Z,0.40
2022-10-18T22:41:34.854Z,0.40
2022-10-18T22:44:03.651Z,0.47
2022-10-18T22:46:32.603Z,0.47
2022-10-18T22:49:00.022Z,0.52
2022-10-18T22:51:27.098Z,0.32
2022-10-18T22:53:54.205Z,0.17
2022-10-18T22:56:22.667Z,0.25
2022-10-18T22:58:49.879Z,0.30
2022-10-18T23:01:22.661Z,0.30
2022-10-18T23:03:57.126Z,0.30
2022-10-18T23:06:25.456Z,0.30
2022-10-18T23:08:53.921Z,0.22
2022-10-18T23:11:23.477Z,0.30
2022-10-18T23:13:51.126Z,0.20
2022-10-18T23:16:18.543Z,0.20
2022-10-18T23:18:51.035Z,0.20
2022-10-18T23:21:18.274Z,0.30
2022-10-18T23:23:45.330Z,0.20
2022-10-18T23:26:17.583Z,0.10
2022-10-18T23:28:46.755Z,0.20
2022-10-18T23:31:19.381Z,0.20
2022-10-18T23:36:15.097Z,0.17
2022-10-18T23:38:42.478Z,0.52
2022-10-18T23:41:11.908Z,0.30
2022-10-18T23:43:39.917Z,0.20
2022-10-18T23:46:07.380Z,0.40
2022-10-18T23:48:34.464Z,0.30
2022-10-18T23:51:02.621Z,0.25
2022-10-18T23:53:29.855Z,0.38
2022-10-18T23:56:05.020Z,0.35
2022-10-18T23:58:33.473Z,0.30
